createdAt,value
2018-06-01T00:00:27.780Z,0.00
2018-06-01T00:01:27.721Z,0.00
2018-06-01T00:02:27.662Z,0.00
2018-06-01T00:03:27.598Z,0.00
2018-06-01T00:04:27.541Z,0.00
2018-06-01T00:05:27.481Z,0.00
2018-06-01T00:06:27.422Z,0.00
2018-06-01T00:07:27.362Z,0.00
2018-06-01T00:08:27.304Z,0.00
2018-06-01T00:09:27.244Z,0.00
2018-06-01T00:10:27.182Z,0.00
2018-06-01T00:11:27.124Z,0.00
2018-06-01T00:12:27.065Z,0.00
2018-06-01T00:13:27.006Z,0.00
2018-06-01T00:14:26.945Z,0.00
2018-06-01T00:15:26.885Z,0.00
2018-06-01T00:16:26.826Z,0.00
2018-06-01T00:17:26.767Z,0.00
2018-06-01T00:18:26.707Z,0.00
2018-06-01T00:19:26.647Z,0.00
2018-06-01T00:20:26.592Z,0.00
2018-06-01T00:21:26.528Z,0.00
2018-06-01T00:22:26.470Z,0.00
2018-06-01T00:23:26.411Z,0.00
2018-06-01T00:24:26.350Z,0.00
2018-06-01T00:25:26.293Z,0.00
2018-06-01T00:26:26.230Z,0.00
2018-06-01T00:27:26.171Z,0.00
2018-06-01T00:28:26.111Z,0.00
2018-06-01T00:29:26.053Z,0.00
2018-06-01T00:30:25.994Z,0.00
2018-06-01T00:31:25.933Z,0.00
2018-06-01T00:32:25.874Z,0.00
2018-06-01T00:33:25.814Z,0.00
2018-06-01T00:34:25.757Z,0.00
2018-06-01T00:35:25.696Z,0.00
2018-06-01T00:36:25.639Z,0.00
2018-06-01T00:37:25.578Z,0.00
2018-06-01T00:38:25.518Z,0.00
2018-06-01T00:39:25.458Z,0.00
2018-06-01T00:40:25.401Z,0.00
2018-06-01T00:41:25.339Z,0.00
2018-06-01T00:42:25.280Z,0.00
2018-06-01T00:43:25.220Z,0.00
2018-06-01T00:44:25.161Z,0.00
2018-06-01T00:45:25.101Z,0.00
2018-06-01T00:46:25.044Z,0.00
2018-06-01T00:47:24.982Z,0.00
2018-06-01T00:48:24.924Z,0.00
2018-06-01T00:49:24.862Z,0.00
2018-06-01T00:50:24.803Z,0.00
2018-06-01T00:51:24.742Z,0.00
2018-06-01T00:52:24.683Z,0.00
2018-06-01T00:53:24.627Z,0.00
2018-06-01T00:54:24.566Z,0.00
2018-06-01T00:55:24.507Z,0.00
2018-06-01T00:56:24.446Z,0.00
2018-06-01T00:57:24.387Z,0.00
2018-06-01T00:58:24.327Z,0.00
2018-06-01T00:59:24.266Z,0.00
2018-06-01T01:00:24.208Z,0.00
2018-06-01T01:01:24.152Z,0.00
2018-06-01T01:02:24.090Z,0.00
2018-06-01T01:03:24.029Z,0.00
2018-06-01T01:04:23.969Z,0.00
2018-06-01T01:05:23.911Z,0.00
2018-06-01T01:06:23.850Z,0.00
2018-06-01T01:07:23.791Z,0.00
2018-06-01T01:08:23.731Z,0.00
2018-06-01T01:09:23.675Z,0.00
2018-06-01T01:10:23.613Z,0.00
2018-06-01T01:11:23.551Z,0.00
2018-06-01T01:12:23.493Z,0.00
2018-06-01T01:13:23.433Z,0.00
2018-06-01T01:14:23.374Z,0.00
2018-06-01T01:15:23.314Z,0.00
2018-06-01T01:16:23.255Z,0.00
2018-06-01T01:17:23.194Z,0.00
2018-06-01T01:18:23.136Z,0.00
2018-06-01T01:19:23.074Z,0.00
2018-06-01T01:20:23.015Z,0.00
2018-06-01T01:21:22.957Z,0.00
2018-06-01T01:22:22.896Z,0.00
2018-06-01T01:23:22.836Z,0.00
2018-06-01T01:24:22.775Z,0.00
2018-06-01T01:25:22.715Z,0.00
2018-06-01T01:26:22.657Z,0.00
2018-06-01T01:27:22.596Z,0.00
2018-06-01T01:28:22.537Z,0.00
2018-06-01T01:29:22.476Z,0.00
2018-06-01T01:30:22.419Z,0.00
2018-06-01T01:31:22.358Z,0.00
2018-06-01T01:32:22.298Z,0.00
2018-06-01T01:33:22.239Z,0.00
2018-06-01T01:34:22.178Z,0.00
2018-06-01T01:35:22.118Z,0.00
2018-06-01T01:36:22.059Z,0.00
2018-06-01T01:37:22.000Z,0.00
2018-06-01T01:38:21.940Z,0.00
2018-06-01T01:39:21.880Z,0.00
2018-06-01T01:40:21.820Z,0.00
2018-06-01T01:41:21.763Z,0.00
2018-06-01T01:42:21.700Z,0.00
2018-06-01T01:43:21.644Z,0.00
2018-06-01T01:44:21.583Z,0.00
2018-06-01T01:45:21.521Z,0.00
2018-06-01T01:46:21.462Z,0.00
2018-06-01T01:47:21.399Z,0.00
2018-06-01T01:48:21.341Z,0.00
2018-06-01T01:49:21.282Z,0.00
2018-06-01T01:50:21.223Z,0.00
2018-06-01T01:51:21.162Z,0.00
2018-06-01T01:52:21.105Z,0.00
2018-06-01T01:53:21.043Z,0.00
2018-06-01T01:54:20.983Z,0.00
2018-06-01T01:55:20.922Z,0.00
2018-06-01T01:56:20.864Z,0.00
2018-06-01T01:57:20.803Z,0.00
2018-06-01T01:58:20.744Z,0.00
2018-06-01T01:59:20.682Z,0.00
2018-06-01T02:00:20.623Z,0.00
2018-06-01T02:01:20.560Z,0.00
2018-06-01T02:02:20.505Z,0.00
2018-06-01T02:03:20.443Z,0.00
2018-06-01T02:04:20.382Z,0.00
2018-06-01T02:05:20.324Z,0.00
2018-06-01T02:06:20.263Z,0.00
2018-06-01T02:07:20.202Z,0.00
2018-06-01T02:08:20.141Z,0.00
2018-06-01T02:09:20.082Z,0.00
2018-06-01T02:10:20.024Z,0.00
2018-06-01T02:11:19.965Z,0.00
2018-06-01T02:12:19.903Z,0.00
2018-06-01T02:13:19.843Z,0.00
2018-06-01T02:14:19.784Z,0.00
2018-06-01T02:15:19.724Z,0.00
2018-06-01T02:16:19.663Z,0.00
2018-06-01T02:17:19.603Z,0.00
2018-06-01T02:18:19.542Z,0.00
2018-06-01T02:19:19.481Z,0.00
2018-06-01T02:20:19.478Z,0.00
2018-06-01T02:21:19.364Z,0.00
2018-06-01T02:22:19.304Z,0.00
2018-06-01T02:23:19.242Z,0.00
2018-06-01T02:24:19.186Z,0.00
2018-06-01T02:25:19.125Z,0.00
2018-06-01T02:26:19.063Z,0.00
2018-06-01T02:27:19.003Z,0.00
2018-06-01T02:28:18.945Z,0.00
2018-06-01T02:29:18.883Z,0.00
2018-06-01T02:30:18.823Z,0.00
2018-06-01T02:31:18.768Z,0.00
2018-06-01T02:32:18.703Z,0.00
2018-06-01T02:33:18.644Z,0.00
2018-06-01T02:34:18.582Z,0.00
2018-06-01T02:35:18.521Z,0.00
2018-06-01T02:36:18.462Z,0.00
2018-06-01T02:37:18.402Z,0.00
2018-06-01T02:38:18.343Z,0.00
2018-06-01T02:39:18.283Z,0.00
2018-06-01T02:40:18.222Z,0.00
2018-06-01T02:41:18.161Z,0.00
2018-06-01T02:42:18.104Z,0.00
2018-06-01T02:43:18.045Z,0.00
2018-06-01T02:44:17.984Z,0.00
2018-06-01T02:45:17.924Z,0.00
2018-06-01T02:46:17.862Z,0.00
2018-06-01T02:47:17.801Z,0.00
2018-06-01T02:48:17.741Z,0.00
2018-06-01T02:49:17.680Z,0.00
2018-06-01T02:50:17.625Z,0.00
2018-06-01T02:51:17.561Z,0.00
2018-06-01T02:52:17.501Z,0.00
2018-06-01T02:53:17.441Z,0.00
2018-06-01T02:54:17.381Z,0.00
2018-06-01T02:55:17.322Z,0.00
2018-06-01T02:56:17.263Z,0.00
2018-06-01T02:57:17.201Z,0.00
2018-06-01T02:58:17.141Z,0.00
2018-06-01T02:59:17.082Z,4.00
2018-06-01T03:00:17.020Z,4.00
2018-06-01T03:01:16.961Z,4.00
2018-06-01T03:02:16.901Z,0.00
2018-06-01T03:03:16.839Z,4.00
2018-06-01T03:04:16.780Z,4.00
2018-06-01T03:05:16.721Z,4.00
2018-06-01T03:06:16.660Z,8.00
2018-06-01T03:07:16.599Z,4.00
2018-06-01T03:08:16.540Z,8.00
2018-06-01T03:09:16.480Z,8.00
2018-06-01T03:10:16.421Z,8.00
2018-06-01T03:11:16.359Z,8.00
2018-06-01T03:12:16.298Z,12.00
2018-06-01T03:13:16.240Z,12.00
2018-06-01T03:14:16.179Z,12.00
2018-06-01T03:15:16.122Z,16.00
2018-06-01T03:16:16.058Z,16.00
2018-06-01T03:17:15.999Z,16.00
2018-06-01T03:18:15.938Z,20.00
2018-06-01T03:19:15.878Z,20.00
2018-06-01T03:20:15.823Z,24.00
2018-06-01T03:21:15.757Z,28.00
2018-06-01T03:22:15.699Z,28.00
2018-06-01T03:23:15.637Z,32.00
2018-06-01T03:24:15.577Z,36.00
2018-06-01T03:25:15.518Z,40.00
2018-06-01T03:26:15.488Z,44.00
2018-06-01T03:27:15.396Z,52.00
2018-06-01T03:28:15.336Z,52.00
2018-06-01T03:29:15.277Z,60.00
2018-06-01T03:30:15.220Z,68.00
2018-06-01T03:31:15.155Z,76.00
2018-06-01T03:32:15.093Z,80.00
2018-06-01T03:33:15.037Z,84.00
2018-06-01T03:34:14.975Z,92.00
2018-06-01T03:35:14.916Z,100.00
2018-06-01T03:36:14.856Z,104.00
2018-06-01T03:37:14.795Z,108.00
2018-06-01T03:38:14.736Z,108.00
2018-06-01T03:39:14.674Z,112.00
2018-06-01T03:40:14.614Z,112.00
2018-06-01T03:41:14.553Z,120.00
2018-06-01T03:42:14.494Z,132.00
2018-06-01T03:43:14.434Z,144.00
2018-06-01T03:44:14.375Z,152.00
2018-06-01T03:45:14.314Z,164.00
2018-06-01T03:46:14.257Z,172.00
2018-06-01T03:47:14.192Z,184.00
2018-06-01T03:48:14.134Z,196.00
2018-06-01T03:49:14.073Z,208.00
2018-06-01T03:50:14.016Z,216.00
2018-06-01T03:51:13.951Z,216.00
2018-06-01T03:52:13.892Z,216.00
2018-06-01T03:53:13.833Z,216.00
2018-06-01T03:54:13.775Z,224.00
2018-06-01T03:55:13.720Z,232.00
2018-06-01T03:56:13.651Z,248.00
2018-06-01T03:57:13.592Z,256.00
2018-06-01T03:58:13.532Z,268.00
2018-06-01T03:59:13.469Z,264.00
2018-06-01T04:00:13.409Z,268.00
2018-06-01T04:01:13.357Z,288.00
2018-06-01T04:02:13.290Z,300.00
2018-06-01T04:03:13.229Z,292.00
2018-06-01T04:04:13.170Z,280.00
2018-06-01T04:05:13.109Z,280.00
2018-06-01T04:06:13.049Z,296.00
2018-06-01T04:07:12.989Z,304.00
2018-06-01T04:08:12.930Z,312.00
2018-06-01T04:09:12.868Z,320.00
2018-06-01T04:10:12.814Z,328.00
2018-06-01T04:11:12.747Z,340.00
2018-06-01T04:12:12.688Z,352.00
2018-06-01T04:13:12.628Z,384.00
2018-06-01T04:14:12.568Z,392.00
2018-06-01T04:15:12.507Z,392.00
2018-06-01T04:16:12.449Z,400.00
2018-06-01T04:17:12.388Z,416.00
2018-06-01T04:18:12.329Z,436.00
2018-06-01T04:19:12.272Z,464.00
2018-06-01T04:20:12.208Z,496.00
2018-06-01T04:21:12.148Z,512.00
2018-06-01T04:22:12.096Z,528.00
2018-06-01T04:23:12.026Z,540.00
2018-06-01T04:24:11.967Z,552.00
2018-06-01T04:25:11.927Z,556.00
2018-06-01T04:26:11.847Z,560.00
2018-06-01T04:27:11.787Z,564.00
2018-06-01T04:28:11.729Z,568.00
2018-06-01T04:29:11.668Z,572.00
2018-06-01T04:30:11.621Z,584.00
2018-06-01T04:31:11.548Z,592.00
2018-06-01T04:32:11.486Z,612.00
2018-06-01T04:33:11.426Z,628.00
2018-06-01T04:34:11.369Z,640.00
2018-06-01T04:35:11.305Z,640.00
2018-06-01T04:36:11.247Z,652.00
2018-06-01T04:37:11.187Z,660.00
2018-06-01T04:38:11.126Z,672.00
2018-06-01T04:39:11.069Z,680.00
2018-06-01T04:40:11.007Z,688.00
2018-06-01T04:41:10.946Z,696.00
2018-06-01T04:42:10.885Z,708.00
2018-06-01T04:43:10.826Z,724.00
2018-06-01T04:44:10.766Z,724.00
2018-06-01T04:45:10.706Z,728.00
2018-06-01T04:46:10.647Z,736.00
2018-06-01T04:47:10.588Z,748.00
2018-06-01T04:48:10.526Z,752.00
2018-06-01T04:49:10.503Z,748.00
2018-06-01T04:50:10.407Z,736.00
2018-06-01T04:51:10.347Z,716.00
2018-06-01T04:52:10.286Z,700.00
2018-06-01T04:53:10.229Z,684.00
2018-06-01T04:54:10.166Z,688.00
2018-06-01T04:55:10.107Z,696.00
2018-06-01T04:56:10.072Z,704.00
2018-06-01T04:57:09.986Z,716.00
2018-06-01T04:58:09.927Z,716.00
2018-06-01T04:59:09.866Z,716.00
2018-06-01T05:00:09.809Z,728.00
2018-06-01T05:01:09.749Z,736.00
2018-06-01T05:02:09.687Z,748.00
2018-06-01T05:03:09.625Z,764.00
2018-06-01T05:04:09.568Z,780.00
2018-06-01T05:05:09.508Z,788.00
2018-06-01T05:06:09.447Z,788.00
2018-06-01T05:07:09.387Z,780.00
2018-06-01T05:08:09.328Z,760.00
2018-06-01T05:09:09.266Z,748.00
2018-06-01T05:10:09.209Z,736.00
2018-06-01T05:11:09.149Z,728.00
2018-06-01T05:12:09.089Z,720.00
2018-06-01T05:13:09.030Z,716.00
2018-06-01T05:14:08.968Z,712.00
2018-06-01T05:15:08.912Z,724.00
2018-06-01T05:16:08.848Z,748.00
2018-06-01T05:17:08.790Z,784.00
2018-06-01T05:18:08.730Z,804.00
2018-06-01T05:19:08.671Z,840.00
2018-06-01T05:20:08.609Z,864.00
2018-06-01T05:21:08.553Z,888.00
2018-06-01T05:22:08.492Z,900.00
2018-06-01T05:23:08.435Z,904.00
2018-06-01T05:24:08.367Z,904.00
2018-06-01T05:25:08.310Z,912.00
2018-06-01T05:26:08.251Z,920.00
2018-06-01T05:27:08.190Z,956.00
2018-06-01T05:28:08.133Z,1004.00
2018-06-01T05:29:08.072Z,1044.00
2018-06-01T05:30:08.011Z,1076.00
2018-06-01T05:31:07.950Z,1104.00
2018-06-01T05:32:07.891Z,1164.00
2018-06-01T05:33:07.832Z,1252.00
2018-06-01T05:34:07.773Z,1340.00
2018-06-01T05:35:07.715Z,1428.00
2018-06-01T05:36:07.656Z,1484.00
2018-06-01T05:37:07.592Z,1504.00
2018-06-01T05:38:07.534Z,1520.00
2018-06-01T05:39:07.477Z,1552.00
2018-06-01T05:40:07.414Z,1584.00
2018-06-01T05:41:07.355Z,1616.00
2018-06-01T05:42:07.295Z,1700.00
2018-06-01T05:43:07.234Z,1796.00
2018-06-01T05:44:07.175Z,1784.00
2018-06-01T05:45:07.149Z,1744.00
2018-06-01T05:46:07.057Z,1728.00
2018-06-01T05:47:06.995Z,1708.00
2018-06-01T05:48:06.934Z,1708.00
2018-06-01T05:49:06.878Z,1716.00
2018-06-01T05:50:06.817Z,1692.00
2018-06-01T05:51:06.758Z,1696.00
2018-06-01T05:52:06.698Z,1764.00
2018-06-01T05:53:06.640Z,1780.00
2018-06-01T05:54:06.579Z,1976.00
2018-06-01T05:55:06.519Z,2048.00
2018-06-01T05:56:06.461Z,2080.00
2018-06-01T05:57:06.401Z,2116.00
2018-06-01T05:58:06.343Z,2160.00
2018-06-01T05:59:06.284Z,2312.00
2018-06-01T06:00:06.226Z,2408.00
2018-06-01T06:01:06.163Z,2452.00
2018-06-01T06:02:06.103Z,2584.00
2018-06-01T06:03:06.044Z,2436.00
2018-06-01T06:04:05.985Z,2576.00
2018-06-01T06:05:05.929Z,2492.00
2018-06-01T06:06:05.867Z,2556.00
2018-06-01T06:07:05.807Z,2656.00
2018-06-01T06:08:05.749Z,2680.00
2018-06-01T06:09:05.688Z,2796.00
2018-06-01T06:10:05.630Z,3004.00
2018-06-01T06:11:05.571Z,3244.00
2018-06-01T06:12:05.524Z,3108.00
2018-06-01T06:13:05.494Z,2608.00
2018-06-01T06:14:05.396Z,2768.00
2018-06-01T06:15:05.339Z,2704.00
2018-06-01T06:16:05.279Z,3304.00
2018-06-01T06:17:05.216Z,3420.00
2018-06-01T06:18:05.157Z,3412.00
2018-06-01T06:19:05.098Z,3356.00
2018-06-01T06:20:05.038Z,3408.00
2018-06-01T06:21:04.981Z,3408.00
2018-06-01T06:22:04.923Z,3488.00
2018-06-01T06:23:04.863Z,3416.00
2018-06-01T06:24:04.803Z,3204.00
2018-06-01T06:25:04.744Z,3256.00
2018-06-01T06:26:04.685Z,3168.00
2018-06-01T06:27:04.626Z,2504.00
2018-06-01T06:28:04.571Z,2904.00
2018-06-01T06:29:04.509Z,2352.00
2018-06-01T06:30:04.453Z,2264.00
2018-06-01T06:31:04.391Z,2444.00
2018-06-01T06:32:04.333Z,2140.00
2018-06-01T06:33:04.273Z,2372.00
2018-06-01T06:34:04.214Z,2500.00
2018-06-01T06:35:04.157Z,2812.00
2018-06-01T06:36:04.098Z,2052.00
2018-06-01T06:37:04.039Z,2944.00
2018-06-01T06:38:03.981Z,2768.00
2018-06-01T06:39:03.923Z,2720.00
2018-06-01T06:40:03.863Z,2828.00
2018-06-01T06:41:03.803Z,2544.00
2018-06-01T06:42:03.745Z,2724.00
2018-06-01T06:43:03.687Z,3188.00
2018-06-01T06:44:03.628Z,1952.00
2018-06-01T06:45:03.571Z,3116.00
2018-06-01T06:46:03.512Z,3164.00
2018-06-01T06:47:03.453Z,2628.00
2018-06-01T06:48:03.394Z,2588.00
2018-06-01T06:49:03.335Z,2816.00
2018-06-01T06:50:03.281Z,3560.00
2018-06-01T06:51:03.217Z,2788.00
2018-06-01T06:52:03.159Z,2460.00
2018-06-01T06:53:03.102Z,2748.00
2018-06-01T06:54:03.042Z,2684.00
2018-06-01T06:55:02.982Z,2788.00
2018-06-01T06:56:02.925Z,2868.00
2018-06-01T06:57:02.866Z,3196.00
2018-06-01T06:58:02.806Z,2960.00
2018-06-01T06:59:02.749Z,2700.00
2018-06-01T07:00:02.692Z,2736.00
2018-06-01T07:01:02.632Z,2500.00
2018-06-01T07:02:02.576Z,2656.00
2018-06-01T07:03:02.515Z,2904.00
2018-06-01T07:04:02.464Z,2716.00
2018-06-01T07:05:02.399Z,2284.00
2018-06-01T07:06:02.340Z,2268.00
2018-06-01T07:07:02.280Z,2524.00
2018-06-01T07:08:02.222Z,2892.00
2018-06-01T07:09:02.163Z,2932.00
2018-06-01T07:10:02.106Z,2580.00
2018-06-01T07:11:02.047Z,2848.00
2018-06-01T07:12:01.991Z,2568.00
2018-06-01T07:13:01.933Z,2532.00
2018-06-01T07:14:01.873Z,2256.00
2018-06-01T07:15:01.813Z,2800.00
2018-06-01T07:16:01.756Z,2680.00
2018-06-01T07:17:01.697Z,2740.00
2018-06-01T07:18:01.646Z,3444.00
2018-06-01T07:19:01.580Z,3728.00
2018-06-01T07:20:01.523Z,2200.00
2018-06-01T07:21:01.463Z,3036.00
2018-06-01T07:22:01.405Z,2936.00
2018-06-01T07:23:01.347Z,3032.00
2018-06-01T07:24:01.289Z,2808.00
2018-06-01T07:25:01.232Z,3340.00
2018-06-01T07:26:01.172Z,3528.00
2018-06-01T07:27:01.115Z,3528.00
2018-06-01T07:28:01.057Z,3480.00
2018-06-01T07:29:00.999Z,3352.00
2018-06-01T07:30:00.939Z,3104.00
2018-06-01T07:31:00.881Z,3308.00
2018-06-01T07:32:00.823Z,3212.00
2018-06-01T07:33:00.764Z,2948.00
2018-06-01T07:34:00.708Z,3172.00
2018-06-01T07:35:00.650Z,4152.00
2018-06-01T07:36:00.591Z,4588.00
2018-06-01T07:37:00.536Z,4976.00
2018-06-01T07:38:00.476Z,5280.00
2018-06-01T07:39:00.418Z,4840.00
2018-06-01T07:40:00.360Z,3796.00
2018-06-01T07:41:00.302Z,3516.00
2018-06-01T07:42:00.244Z,3576.00
2018-06-01T07:43:00.186Z,3832.00
2018-06-01T07:44:00.129Z,3816.00
2018-06-01T07:45:00.072Z,4016.00
2018-06-01T07:46:00.013Z,4032.00
2018-06-01T07:46:59.969Z,4264.00
2018-06-01T07:47:59.896Z,3936.00
2018-06-01T07:48:59.839Z,3408.00
2018-06-01T07:49:59.784Z,3844.00
2018-06-01T07:50:59.725Z,4064.00
2018-06-01T07:51:59.666Z,4056.00
2018-06-01T07:52:59.610Z,4016.00
2018-06-01T07:53:59.552Z,3936.00
2018-06-01T07:54:59.493Z,3756.00
2018-06-01T07:55:59.438Z,3308.00
2018-06-01T07:56:59.381Z,2908.00
2018-06-01T07:57:59.324Z,3032.00
2018-06-01T07:58:59.266Z,3876.00
2018-06-01T07:59:59.209Z,3992.00
2018-06-01T08:00:59.150Z,4500.00
2018-06-01T08:01:59.100Z,5376.00
2018-06-01T08:02:59.036Z,4396.00
2018-06-01T08:03:58.979Z,4324.00
2018-06-01T08:04:58.923Z,4768.00
2018-06-01T08:05:58.866Z,4416.00
2018-06-01T08:06:58.811Z,5388.00
2018-06-01T08:07:58.750Z,4352.00
2018-06-01T08:08:58.697Z,4524.00
2018-06-01T08:09:58.637Z,4312.00
2018-06-01T08:10:58.578Z,5216.00
2018-06-01T08:11:58.524Z,4508.00
2018-06-01T08:12:58.466Z,3984.00
2018-06-01T08:13:58.409Z,3816.00
2018-06-01T08:14:58.353Z,3928.00
2018-06-01T08:15:58.293Z,4260.00
2018-06-01T08:16:58.238Z,4288.00
2018-06-01T08:17:58.179Z,4560.00
2018-06-01T08:18:58.128Z,3232.00
2018-06-01T08:19:58.067Z,3080.00
2018-06-01T08:20:58.015Z,4432.00
2018-06-01T08:21:57.952Z,5572.00
2018-06-01T08:22:57.896Z,5356.00
2018-06-01T08:23:57.838Z,5240.00
2018-06-01T08:24:57.781Z,5332.00
2018-06-01T08:25:57.727Z,4156.00
2018-06-01T08:26:57.691Z,3820.00
2018-06-01T08:27:57.612Z,2692.00
2018-06-01T08:28:57.556Z,2416.00
2018-06-01T08:29:57.501Z,2460.00
2018-06-01T08:30:57.442Z,2756.00
2018-06-01T08:31:57.385Z,3124.00
2018-06-01T08:32:57.327Z,3556.00
2018-06-01T08:33:57.274Z,4116.00
2018-06-01T08:34:57.214Z,5532.00
2018-06-01T08:35:57.159Z,4296.00
2018-06-01T08:36:57.100Z,5428.00
2018-06-01T08:37:57.046Z,4376.00
2018-06-01T08:38:56.987Z,4552.00
2018-06-01T08:39:56.930Z,4480.00
2018-06-01T08:40:56.875Z,3412.00
2018-06-01T08:41:56.818Z,3292.00
2018-06-01T08:42:56.763Z,2784.00
2018-06-01T08:43:56.707Z,1980.00
2018-06-01T08:44:56.649Z,2080.00
2018-06-01T08:45:56.593Z,2336.00
2018-06-01T08:46:56.536Z,2628.00
2018-06-01T08:47:56.480Z,3592.00
2018-06-01T08:48:56.421Z,4160.00
2018-06-01T08:49:56.365Z,4024.00
2018-06-01T08:50:56.310Z,4092.00
2018-06-01T08:51:56.251Z,3932.00
2018-06-01T08:52:56.198Z,4112.00
2018-06-01T08:53:56.139Z,2572.00
2018-06-01T08:54:56.083Z,2348.00
2018-06-01T08:55:56.025Z,2392.00
2018-06-01T08:56:55.969Z,2816.00
2018-06-01T08:57:55.912Z,2944.00
2018-06-01T08:58:55.893Z,3220.00
2018-06-01T08:59:55.800Z,4176.00
2018-06-01T09:00:55.748Z,4736.00
2018-06-01T09:01:55.686Z,4884.00
2018-06-01T09:02:55.663Z,3528.00
2018-06-01T09:03:55.581Z,3588.00
2018-06-01T09:04:55.518Z,3080.00
2018-06-01T09:05:55.460Z,4112.00
2018-06-01T09:06:55.403Z,4432.00
2018-06-01T09:07:55.350Z,3920.00
2018-06-01T09:08:55.289Z,4488.00
2018-06-01T09:09:55.240Z,4648.00
2018-06-01T09:10:55.179Z,5228.00
2018-06-01T09:11:55.121Z,3824.00
2018-06-01T09:12:55.066Z,5208.00
2018-06-01T09:13:55.009Z,6112.00
2018-06-01T09:14:54.952Z,3232.00
2018-06-01T09:15:54.894Z,2356.00
2018-06-01T09:16:54.838Z,1940.00
2018-06-01T09:17:54.783Z,1684.00
2018-06-01T09:18:54.726Z,1584.00
2018-06-01T09:19:54.671Z,1488.00
2018-06-01T09:20:54.616Z,1500.00
2018-06-01T09:21:54.561Z,1556.00
2018-06-01T09:22:54.502Z,1752.00
2018-06-01T09:23:54.446Z,2600.00
2018-06-01T09:24:54.390Z,2624.00
2018-06-01T09:25:54.335Z,2712.00
2018-06-01T09:26:54.279Z,3304.00
2018-06-01T09:27:54.221Z,3288.00
2018-06-01T09:28:54.165Z,6516.00
2018-06-01T09:29:54.109Z,6848.00
2018-06-01T09:30:54.052Z,5104.00
2018-06-01T09:31:53.995Z,8400.00
2018-06-01T09:32:53.940Z,4996.00
2018-06-01T09:33:53.885Z,5456.00
2018-06-01T09:34:53.828Z,3624.00
2018-06-01T09:35:53.772Z,3312.00
2018-06-01T09:36:53.720Z,3088.00
2018-06-01T09:37:53.661Z,2568.00
2018-06-01T09:38:53.607Z,2160.00
2018-06-01T09:39:53.553Z,1992.00
2018-06-01T09:40:53.495Z,2012.00
2018-06-01T09:41:53.439Z,2132.00
2018-06-01T09:42:53.386Z,2272.00
2018-06-01T09:43:53.330Z,2604.00
2018-06-01T09:44:53.274Z,3044.00
2018-06-01T09:45:53.220Z,3328.00
2018-06-01T09:46:53.164Z,3076.00
2018-06-01T09:47:53.109Z,2796.00
2018-06-01T09:48:53.062Z,2676.00
2018-06-01T09:49:53.013Z,2800.00
2018-06-01T09:50:52.942Z,3812.00
2018-06-01T09:51:52.891Z,8396.00
2018-06-01T09:52:52.832Z,8376.00
2018-06-01T09:53:52.777Z,3848.00
2018-06-01T09:54:52.723Z,5776.00
2018-06-01T09:55:52.666Z,8164.00
2018-06-01T09:56:52.610Z,3968.00
2018-06-01T09:57:52.558Z,3920.00
2018-06-01T09:58:52.500Z,8028.00
2018-06-01T09:59:52.444Z,7960.00
2018-06-01T10:00:52.399Z,7616.00
2018-06-01T10:01:52.335Z,7452.00
2018-06-01T10:02:52.280Z,7780.00
2018-06-01T10:03:52.229Z,3788.00
2018-06-01T10:04:52.174Z,3276.00
2018-06-01T10:05:52.121Z,2732.00
2018-06-01T10:06:52.066Z,2380.00
2018-06-01T10:07:52.011Z,2160.00
2018-06-01T10:08:51.960Z,1996.00
2018-06-01T10:09:51.911Z,2068.00
2018-06-01T10:10:51.851Z,2220.00
2018-06-01T10:11:51.801Z,2116.00
2018-06-01T10:12:51.745Z,2064.00
2018-06-01T10:13:51.690Z,1956.00
2018-06-01T10:14:51.638Z,1884.00
2018-06-01T10:15:51.582Z,1812.00
2018-06-01T10:16:51.529Z,1968.00
2018-06-01T10:17:51.474Z,2120.00
2018-06-01T10:18:51.419Z,2320.00
2018-06-01T10:19:51.370Z,2816.00
2018-06-01T10:20:51.311Z,3792.00
2018-06-01T10:21:51.258Z,3852.00
2018-06-01T10:22:51.203Z,4364.00
2018-06-01T10:23:51.147Z,4476.00
2018-06-01T10:24:51.092Z,4836.00
2018-06-01T10:25:51.044Z,4772.00
2018-06-01T10:26:50.982Z,4956.00
2018-06-01T10:27:50.927Z,4720.00
2018-06-01T10:28:50.873Z,4648.00
2018-06-01T10:29:50.821Z,4796.00
2018-06-01T10:30:50.765Z,4660.00
2018-06-01T10:31:50.711Z,4484.00
2018-06-01T10:32:50.655Z,4480.00
2018-06-01T10:33:50.600Z,4304.00
2018-06-01T10:34:50.545Z,3780.00
2018-06-01T10:35:50.489Z,3420.00
2018-06-01T10:36:50.438Z,3700.00
2018-06-01T10:37:50.383Z,4220.00
2018-06-01T10:38:50.326Z,5928.00
2018-06-01T10:39:50.267Z,7296.00
2018-06-01T10:40:50.227Z,4640.00
2018-06-01T10:41:50.161Z,5588.00
2018-06-01T10:42:50.106Z,4420.00
2018-06-01T10:43:50.052Z,4396.00
2018-06-01T10:44:49.998Z,4740.00
2018-06-01T10:45:49.947Z,7440.00
2018-06-01T10:46:49.889Z,4380.00
2018-06-01T10:47:49.836Z,5892.00
2018-06-01T10:48:49.781Z,4884.00
2018-06-01T10:49:49.726Z,4616.00
2018-06-01T10:50:49.673Z,6880.00
2018-06-01T10:51:49.618Z,6292.00
2018-06-01T10:52:49.563Z,3800.00
2018-06-01T10:53:49.514Z,3496.00
2018-06-01T10:54:49.455Z,3628.00
2018-06-01T10:55:49.401Z,4312.00
2018-06-01T10:56:49.348Z,5164.00
2018-06-01T10:57:49.295Z,4384.00
2018-06-01T10:58:49.240Z,3808.00
2018-06-01T10:59:49.187Z,5696.00
2018-06-01T11:00:49.135Z,5520.00
2018-06-01T11:01:49.079Z,5808.00
2018-06-01T11:02:49.025Z,3560.00
2018-06-01T11:03:48.978Z,4132.00
2018-06-01T11:04:48.919Z,4392.00
2018-06-01T11:05:48.866Z,3784.00
2018-06-01T11:06:48.810Z,3764.00
2018-06-01T11:07:48.756Z,3804.00
2018-06-01T11:08:48.707Z,5312.00
2018-06-01T11:09:48.650Z,5280.00
2018-06-01T11:10:48.596Z,5408.00
2018-06-01T11:11:48.543Z,5636.00
2018-06-01T11:12:48.488Z,3904.00
2018-06-01T11:13:48.439Z,3780.00
2018-06-01T11:14:48.380Z,4456.00
2018-06-01T11:15:48.327Z,5248.00
2018-06-01T11:16:48.273Z,3760.00
2018-06-01T11:17:48.223Z,3500.00
2018-06-01T11:18:48.167Z,3212.00
2018-06-01T11:19:48.113Z,3964.00
2018-06-01T11:20:48.058Z,4364.00
2018-06-01T11:21:48.008Z,2936.00
2018-06-01T11:22:47.948Z,3304.00
2018-06-01T11:23:47.896Z,3324.00
2018-06-01T11:24:47.841Z,3616.00
2018-06-01T11:25:47.788Z,3936.00
2018-06-01T11:26:47.735Z,3756.00
2018-06-01T11:27:47.677Z,4288.00
2018-06-01T11:28:47.625Z,4096.00
2018-06-01T11:29:47.569Z,4520.00
2018-06-01T11:30:47.514Z,4572.00
2018-06-01T11:31:47.472Z,4452.00
2018-06-01T11:32:47.405Z,3736.00
2018-06-01T11:33:47.351Z,2900.00
2018-06-01T11:34:47.293Z,2692.00
2018-06-01T11:35:47.243Z,2560.00
2018-06-01T11:36:47.187Z,2656.00
2018-06-01T11:37:47.131Z,2704.00
2018-06-01T11:38:47.080Z,2984.00
2018-06-01T11:39:47.021Z,3356.00
2018-06-01T11:40:46.969Z,3128.00
2018-06-01T11:41:46.914Z,2568.00
2018-06-01T11:42:46.858Z,2504.00
2018-06-01T11:43:46.800Z,2400.00
2018-06-01T11:44:46.747Z,2148.00
2018-06-01T11:45:46.695Z,2140.00
2018-06-01T11:46:46.638Z,2240.00
2018-06-01T11:47:46.584Z,2476.00
2018-06-01T11:48:46.528Z,2692.00
2018-06-01T11:49:46.473Z,2752.00
2018-06-01T11:50:46.421Z,3504.00
2018-06-01T11:51:46.366Z,4108.00
2018-06-01T11:52:46.310Z,4080.00
2018-06-01T11:53:46.255Z,4044.00
2018-06-01T11:54:46.198Z,2996.00
2018-06-01T11:55:46.142Z,2816.00
2018-06-01T11:56:46.093Z,3896.00
2018-06-01T11:57:46.034Z,3840.00
2018-06-01T11:58:45.977Z,3796.00
2018-06-01T11:59:45.925Z,3856.00
2018-06-01T12:00:45.865Z,2996.00
2018-06-01T12:01:45.843Z,3900.00
2018-06-01T12:02:45.756Z,4292.00
2018-06-01T12:03:45.700Z,4656.00
2018-06-01T12:04:45.645Z,4852.00
2018-06-01T12:05:45.591Z,3592.00
2018-06-01T12:06:45.536Z,5096.00
2018-06-01T12:07:45.479Z,3188.00
2018-06-01T12:08:45.425Z,3012.00
2018-06-01T12:09:45.372Z,4416.00
2018-06-01T12:10:45.313Z,2716.00
2018-06-01T12:11:45.259Z,3744.00
2018-06-01T12:12:45.206Z,3624.00
2018-06-01T12:13:45.151Z,3632.00
2018-06-01T12:14:45.096Z,3644.00
2018-06-01T12:15:45.040Z,3644.00
2018-06-01T12:16:45.018Z,3668.00
2018-06-01T12:17:44.977Z,3660.00
2018-06-01T12:18:44.874Z,3688.00
2018-06-01T12:19:44.817Z,3736.00
2018-06-01T12:20:44.762Z,3812.00
2018-06-01T12:21:44.710Z,3780.00
2018-06-01T12:22:44.652Z,3772.00
2018-06-01T12:23:44.600Z,3788.00
2018-06-01T12:24:44.544Z,3784.00
2018-06-01T12:25:44.491Z,3832.00
2018-06-01T12:26:44.434Z,3860.00
2018-06-01T12:27:44.378Z,3924.00